createdAt,value
2022-11-26T00:00:13.152Z,95
2022-11-26T00:02:17.210Z,94.7
2022-11-26T00:04:05.634Z,94.7
2022-11-26T00:06:18.831Z,94.7
2022-11-26T00:08:16.051Z,95.5
2022-11-26T00:10:13.659Z,95.5
2022-11-26T00:12:15.404Z,95.5
2022-11-26T00:14:12.067Z,95.5
2022-11-26T00:16:04.758Z,95.5
2022-11-26T00:18:04.014Z,95.5
2022-11-26T00:20:04.732Z,95.5
2022-11-26T00:22:03.606Z,95.5
2022-11-26T00:24:03.994Z,95.5
2022-11-26T00:26:03.884Z,95.5
2022-11-26T00:28:02.826Z,95.5
2022-11-26T00:30:13.195Z,95.5
2022-11-26T00:32:02.908Z,95.5
2022-11-26T00:34:01.939Z,95.5
2022-11-26T00:36:05.722Z,95.5
2022-11-26T00:38:02.234Z,95.6
2022-11-26T00:40:01.723Z,94.9
2022-11-26T00:42:01.069Z,94.9
2022-11-26T00:44:01.499Z,95.5
2022-11-26T00:46:00.657Z,95.5
2022-11-26T00:48:00.389Z,95.8
2022-11-26T00:50:00.064Z,96.1
2022-11-26T00:51:59.916Z,96.1
2022-11-26T00:54:01.956Z,96.1
2022-11-26T00:55:59.330Z,96.1
2022-11-26T00:58:00.039Z,96
2022-11-26T00:59:58.836Z,95.1
2022-11-26T01:01:58.749Z,95.1
2022-11-26T01:03:58.435Z,95.8
2022-11-26T01:05:58.547Z,95.8
2022-11-26T01:08:00.518Z,96.3
2022-11-26T01:09:57.699Z,96.3
2022-11-26T01:11:57.433Z,96.3
2022-11-26T01:13:57.178Z,95.7
2022-11-26T01:15:59.323Z,95.7
2022-11-26T01:17:57.235Z,95.5
2022-11-26T01:19:56.422Z,95.5
2022-11-26T01:21:56.238Z,95.5
2022-11-26T01:23:56.645Z,95.5
2022-11-26T01:25:55.715Z,95.5
2022-11-26T01:27:55.513Z,96.2
2022-11-26T01:29:55.491Z,96.2
2022-11-26T01:31:55.353Z,96.2
2022-11-26T01:33:55.880Z,96.2
2022-11-26T01:35:54.531Z,96.2
2022-11-26T01:37:54.520Z,96
2022-11-26T01:39:54.054Z,96
2022-11-26T01:42:01.716Z,96
2022-11-26T01:43:57.688Z,96
2022-11-26T01:45:54.061Z,96
2022-11-26T01:47:53.102Z,95.4
2022-11-26T01:50:25.295Z,95.4
2022-11-26T01:52:00.637Z,95.4
2022-11-26T01:53:56.221Z,95.4
2022-11-26T01:55:56.875Z,95.4
2022-11-26T01:57:52.028Z,95.1
2022-11-26T01:59:54.511Z,95.1
2022-11-26T02:01:53.250Z,95.1
2022-11-26T02:03:59.612Z,95.1
2022-11-26T02:05:58.574Z,95.1
2022-11-26T02:07:52.125Z,95.2
2022-11-26T02:09:50.294Z,95.2
2022-11-26T02:11:50.250Z,95.2
2022-11-26T02:13:53.493Z,95.2
2022-11-26T02:15:57.364Z,95.2
2022-11-26T02:17:54.714Z,94.9
2022-11-26T02:20:18.429Z,94.9
2022-11-26T02:21:55.476Z,94.6
2022-11-26T02:24:12.452Z,94.6
2022-11-26T02:26:07.737Z,94.6
2022-11-26T02:28:06.530Z,94.3
2022-11-26T02:30:02.303Z,94.3
2022-11-26T02:31:54.736Z,94.3
2022-11-26T02:33:52.878Z,94.3
2022-11-26T02:35:50.853Z,94.3
2022-11-26T02:37:52.827Z,94.1
2022-11-26T02:39:46.968Z,93.9
2022-11-26T02:41:48.966Z,93.9
2022-11-26T02:43:47.078Z,93.9
2022-11-26T02:45:49.680Z,93.9
2022-11-26T02:47:49.985Z,94.1
2022-11-26T02:49:49.460Z,94.1
2022-11-26T02:51:48.821Z,94.1
2022-11-26T02:53:47.256Z,94.1
2022-11-26T02:55:50.096Z,94.1
2022-11-26T02:57:48.857Z,93.2
2022-11-26T02:59:45.811Z,93.2
2022-11-26T03:01:49.614Z,93.2
2022-11-26T03:03:48.274Z,93.2
2022-11-26T03:05:43.857Z,93.2
2022-11-26T03:07:46.100Z,93.4
2022-11-26T03:09:53.815Z,93.4
2022-11-26T03:11:43.198Z,92.6
2022-11-26T03:13:42.937Z,92.6
2022-11-26T03:15:42.856Z,92.6
2022-11-26T03:17:42.312Z,92.2
2022-11-26T03:19:42.973Z,92.2
2022-11-26T03:21:41.841Z,92.2
2022-11-26T03:23:41.522Z,92.2
2022-11-26T03:25:41.381Z,92.2
2022-11-26T03:27:40.974Z,92.4
2022-11-26T03:29:40.750Z,92.4
2022-11-26T03:31:40.672Z,92.4
2022-11-26T03:33:40.298Z,92.4
2022-11-26T03:35:40.036Z,92.1
2022-11-26T03:37:39.874Z,91.9
2022-11-26T03:39:39.832Z,91.9
2022-11-26T03:41:39.314Z,91.9
2022-11-26T03:43:38.953Z,91.5
2022-11-26T03:45:38.959Z,91.5
2022-11-26T03:47:38.570Z,90.9
2022-11-26T03:49:38.416Z,90.9
2022-11-26T03:51:38.140Z,90.9
2022-11-26T03:53:37.963Z,90.9
2022-11-26T03:55:37.564Z,89.9
2022-11-26T03:57:37.628Z,90.2
2022-11-26T03:59:37.129Z,90.2
2022-11-26T04:01:36.772Z,90.6
2022-11-26T04:03:36.498Z,90
2022-11-26T04:05:36.341Z,90
2022-11-26T04:07:36.032Z,89.8
2022-11-26T04:09:35.823Z,90.5
2022-11-26T04:11:35.712Z,90.5
2022-11-26T04:13:35.293Z,90.5
2022-11-26T04:15:35.029Z,90.5
2022-11-26T04:17:34.853Z,90.5
2022-11-26T04:19:34.537Z,91.1
2022-11-26T04:21:34.406Z,91.1
2022-11-26T04:23:34.629Z,91.7
2022-11-26T04:25:34.011Z,91.7
2022-11-26T04:27:34.084Z,92.4
2022-11-26T04:29:33.312Z,92.4
2022-11-26T04:31:33.183Z,92.4
2022-11-26T04:33:32.886Z,92.4
2022-11-26T04:35:32.699Z,92.4
2022-11-26T04:37:32.576Z,92.5
2022-11-26T04:39:32.232Z,91.5
2022-11-26T04:41:32.069Z,91.5
2022-11-26T04:43:31.910Z,92
2022-11-26T04:45:31.635Z,91.3
2022-11-26T04:47:31.664Z,90.7
2022-11-26T04:49:31.047Z,90.2
2022-11-26T04:51:31.016Z,90.2
2022-11-26T04:53:30.717Z,91
2022-11-26T04:55:30.379Z,91
2022-11-26T04:57:30.207Z,90.7
2022-11-26T04:59:29.979Z,89.8
2022-11-26T05:01:29.920Z,89.8
2022-11-26T05:03:29.461Z,89.8
2022-11-26T05:05:29.227Z,90.5
2022-11-26T05:07:29.056Z,90.1
2022-11-26T05:09:28.724Z,90.1
2022-11-26T05:11:28.620Z,90.1
2022-11-26T05:13:28.822Z,90.1
2022-11-26T05:15:28.185Z,88.8
2022-11-26T05:17:27.971Z,89.2
2022-11-26T05:19:27.664Z,88
2022-11-26T05:21:27.519Z,88.9
2022-11-26T05:23:27.153Z,89.8
2022-11-26T05:25:26.977Z,89.8
2022-11-26T05:27:26.916Z,89.9
2022-11-26T05:29:26.643Z,90.4
2022-11-26T05:31:26.439Z,89.4
2022-11-26T05:33:26.381Z,89.4
2022-11-26T05:35:25.790Z,89.4
2022-11-26T05:37:25.562Z,89.1
2022-11-26T05:39:25.373Z,89.1
2022-11-26T05:41:25.098Z,89.1
2022-11-26T05:43:25.137Z,89.1
2022-11-26T05:45:24.642Z,89.1
2022-11-26T05:47:24.259Z,90
2022-11-26T05:49:24.092Z,90
2022-11-26T05:51:23.893Z,90
2022-11-26T05:53:23.621Z,90
2022-11-26T05:55:23.414Z,90.5
2022-11-26T05:57:23.085Z,90.4
2022-11-26T05:59:22.814Z,90.4
2022-11-26T06:01:22.663Z,90.4
2022-11-26T06:03:22.792Z,90.4
2022-11-26T06:05:22.133Z,90.4
2022-11-26T06:07:21.962Z,91
2022-11-26T06:09:21.639Z,91
2022-11-26T06:11:21.712Z,91
2022-11-26T06:13:21.347Z,91
2022-11-26T06:15:20.936Z,91
2022-11-26T06:17:20.667Z,91.3
2022-11-26T06:19:20.357Z,91.3
2022-11-26T06:21:20.245Z,91.3
2022-11-26T06:23:19.999Z,91.3
2022-11-26T06:25:19.756Z,91.3
2022-11-26T06:27:19.540Z,91.1
2022-11-26T06:29:22.347Z,91.1
2022-11-26T06:31:19.044Z,91.1
2022-11-26T06:33:19.035Z,91.1
2022-11-26T06:35:18.394Z,91.1
2022-11-26T06:37:18.199Z,91
2022-11-26T06:39:18.037Z,91
2022-11-26T06:41:17.666Z,91
2022-11-26T06:43:17.348Z,91
2022-11-26T06:45:18.108Z,91
2022-11-26T06:47:16.863Z,91.3
2022-11-26T06:49:16.760Z,91.3
2022-11-26T06:51:17.532Z,91.3
2022-11-26T06:53:16.234Z,91.3
2022-11-26T06:55:16.114Z,91.6
2022-11-26T06:57:15.659Z,91.3
2022-11-26T06:59:15.419Z,91.3
2022-11-26T07:01:17.401Z,91
2022-11-26T07:03:18.569Z,91
2022-11-26T07:05:14.898Z,91
2022-11-26T07:07:14.595Z,91.5
2022-11-26T07:09:14.506Z,91.5
2022-11-26T07:11:14.126Z,91.5
2022-11-26T07:13:13.692Z,91.5
2022-11-26T07:15:13.608Z,91.5
2022-11-26T07:17:13.247Z,91.2
2022-11-26T07:19:13.417Z,91.2
2022-11-26T07:21:13.156Z,91
2022-11-26T07:23:12.508Z,91
2022-11-26T07:25:13.045Z,90.4
2022-11-26T07:27:12.068Z,90.9
2022-11-26T07:29:11.948Z,90.9
2022-11-26T07:31:17.052Z,90
2022-11-26T07:33:11.197Z,90
2022-11-26T07:35:11.054Z,90.6
2022-11-26T07:37:10.721Z,90.6
2022-11-26T07:39:11.383Z,90.1
2022-11-26T07:41:12.738Z,90.1
2022-11-26T07:43:10.060Z,90.1
2022-11-26T07:45:10.563Z,90.6
2022-11-26T07:47:09.518Z,89.8
2022-11-26T07:49:09.333Z,89.8
2022-11-26T07:51:16.085Z,89.8
2022-11-26T07:53:08.711Z,89.8
2022-11-26T07:55:12.469Z,89.8
2022-11-26T07:57:09.513Z,89.8
2022-11-26T07:59:09.722Z,89.7
2022-11-26T08:01:09.550Z,89.7
2022-11-26T08:03:07.419Z,89.7
2022-11-26T08:05:07.511Z,89.7
2022-11-26T08:07:07.080Z,89.7
2022-11-26T08:09:06.690Z,90.3
2022-11-26T08:11:13.044Z,90.3
2022-11-26T08:13:06.173Z,90.3
2022-11-26T08:15:06.947Z,90.3
2022-11-26T08:17:05.574Z,90.3
2022-11-26T08:19:07.351Z,90.2
2022-11-26T08:21:05.702Z,90.2
2022-11-26T08:23:04.870Z,90.2
2022-11-26T08:25:05.663Z,89.7
2022-11-26T08:27:04.505Z,89.7
2022-11-26T08:29:04.121Z,89.7
2022-11-26T08:31:06.870Z,89.7
2022-11-26T08:33:04.002Z,90.3
2022-11-26T08:35:03.609Z,90.3
2022-11-26T08:37:03.086Z,89.7
2022-11-26T08:39:03.082Z,89.9
2022-11-26T08:41:04.736Z,89.9
2022-11-26T08:43:02.387Z,89.9
2022-11-26T08:45:02.061Z,89.9
2022-11-26T08:47:01.762Z,89.9
2022-11-26T08:49:01.500Z,90.2
2022-11-26T08:51:03.878Z,90.2
2022-11-26T08:53:01.102Z,90.2
2022-11-26T08:55:00.768Z,90.2
2022-11-26T08:57:00.460Z,90.2
2022-11-26T08:59:01.581Z,90.4
2022-11-26T09:01:06.187Z,90.4
2022-11-26T09:02:59.815Z,90.4
2022-11-26T09:04:59.447Z,90.4
2022-11-26T09:06:59.082Z,90.4
2022-11-26T09:09:00.320Z,90.5
2022-11-26T09:10:58.711Z,90.5
2022-11-26T09:12:58.473Z,90.7
2022-11-26T09:14:58.102Z,90.7
2022-11-26T09:16:57.954Z,90.7
2022-11-26T09:18:59.765Z,91.4
2022-11-26T09:21:01.738Z,91.4
2022-11-26T09:22:58.182Z,91.4
2022-11-26T09:24:56.737Z,91.4
2022-11-26T09:26:56.470Z,91.4
2022-11-26T09:28:56.274Z,91.4
2022-11-26T09:30:56.937Z,91.4
2022-11-26T09:32:56.009Z,90.9
2022-11-26T09:34:55.818Z,90.9
2022-11-26T09:36:55.271Z,90.9
2022-11-26T09:38:55.793Z,91.3
2022-11-26T09:41:06.051Z,91.4
2022-11-26T09:43:03.537Z,91.4
2022-11-26T09:45:08.579Z,91.4
2022-11-26T09:47:12.002Z,92.1
2022-11-26T09:48:54.838Z,92.1
2022-11-26T09:51:00.665Z,92.1
2022-11-26T09:52:56.708Z,92.1
2022-11-26T09:55:01.747Z,92.1
2022-11-26T09:56:58.445Z,92.1
2022-11-26T09:58:56.531Z,92.4
2022-11-26T10:00:54.010Z,92.4
2022-11-26T10:02:53.864Z,92.4
2022-11-26T10:04:51.914Z,92.4
2022-11-26T10:07:00.863Z,92.4
2022-11-26T10:09:15.188Z,92.5
2022-11-26T10:10:57.810Z,92.7
2022-11-26T10:14:56.126Z,92.7
2022-11-26T10:17:03.987Z,92.7
2022-11-26T10:19:01.528Z,92.7
2022-11-26T10:20:56.974Z,92.7
2022-11-26T10:22:57.119Z,92.7
2022-11-26T10:24:50.377Z,92.7
2022-11-26T10:26:49.764Z,92.7
2022-11-26T10:28:51.977Z,92.8
2022-11-26T10:30:57.727Z,92.8
2022-11-26T10:32:50.732Z,93.3
2022-11-26T10:34:50.592Z,93.3
2022-11-26T10:36:48.161Z,93.3
2022-11-26T10:38:47.501Z,92.9
2022-11-26T10:40:47.340Z,92.9
2022-11-26T10:42:58.030Z,92.9
2022-11-26T10:44:48.511Z,92.9
2022-11-26T10:46:46.676Z,92.9
2022-11-26T10:48:46.314Z,92.8
2022-11-26T10:50:57.626Z,92.8
2022-11-26T10:52:46.210Z,92.8
2022-11-26T10:54:45.782Z,92.8
2022-11-26T10:56:46.495Z,92.8
2022-11-26T10:58:46.746Z,93.2
2022-11-26T11:00:55.733Z,93.5
2022-11-26T11:02:48.538Z,93.5
2022-11-26T11:04:48.052Z,93.5
2022-11-26T11:06:44.196Z,93.5
2022-11-26T11:08:44.782Z,93.7
2022-11-26T11:10:54.071Z,93.7
2022-11-26T11:12:48.070Z,93.7
2022-11-26T11:14:44.841Z,93.7
2022-11-26T11:16:43.996Z,93.7
2022-11-26T11:18:53.641Z,93.8
2022-11-26T11:20:50.799Z,93.8
2022-11-26T11:22:43.618Z,94
2022-11-26T11:24:45.651Z,94
2022-11-26T11:26:44.036Z,94
2022-11-26T11:28:47.589Z,93.9
2022-11-26T11:30:42.847Z,93.5
2022-11-26T11:32:41.246Z,93.5
2022-11-26T11:34:41.512Z,93.5
2022-11-26T11:36:40.785Z,93.5
2022-11-26T11:38:46.783Z,93.5
2022-11-26T11:40:41.307Z,93.5
2022-11-26T11:42:40.232Z,93.5
2022-11-26T11:44:45.142Z,93.5
2022-11-26T11:46:58.014Z,93.5
2022-11-26T11:48:52.594Z,93.8
2022-11-26T11:50:43.487Z,93.8
2022-11-26T11:52:52.685Z,93.8
2022-11-26T11:54:48.071Z,93.8
2022-11-26T11:56:43.326Z,93.8
2022-11-26T11:58:53.320Z,93.3
2022-11-26T12:00:46.834Z,93.3
2022-11-26T12:02:54.693Z,94
2022-11-26T12:04:55.490Z,94
2022-11-26T12:06:44.697Z,94
2022-11-26T12:08:48.050Z,94
2022-11-26T12:10:46.232Z,94
2022-11-26T12:12:40.306Z,94.5
2022-11-26T12:14:41.753Z,94.5
2022-11-26T12:16:42.428Z,94.5
2022-11-26T12:18:44.068Z,94.5
2022-11-26T12:20:41.201Z,94.5
2022-11-26T12:22:40.638Z,94.5
2022-11-26T12:24:40.348Z,94.5
2022-11-26T12:26:39.524Z,94.5
2022-11-26T12:28:41.593Z,94.6
2022-11-26T12:30:45.739Z,94.6
2022-11-26T12:32:40.218Z,94.6
2022-11-26T12:34:39.825Z,94.6
2022-11-26T12:36:43.693Z,95.1
2022-11-26T12:38:40.086Z,95.1
2022-11-26T12:40:37.249Z,95.1
2022-11-26T12:42:38.708Z,95.1
2022-11-26T12:44:36.939Z,95.1
2022-11-26T12:46:39.044Z,95.1
2022-11-26T12:48:41.599Z,95.3
2022-11-26T12:50:41.296Z,95.3
2022-11-26T12:52:40.535Z,95.3
2022-11-26T12:54:38.490Z,95.3
2022-11-26T12:56:38.103Z,95.3
2022-11-26T12:58:50.903Z,95.8
2022-11-26T13:00:36.078Z,95.8
2022-11-26T13:02:34.884Z,95.8
2022-11-26T13:04:49.144Z,95.8
2022-11-26T13:06:42.672Z,95.8
2022-11-26T13:08:41.629Z,95.4
2022-11-26T13:10:38.611Z,95.4
2022-11-26T13:12:40.738Z,95.4
2022-11-26T13:14:39.980Z,95.4
2022-11-26T13:16:36.099Z,95.4
2022-11-26T13:18:33.554Z,96.4
2022-11-26T13:20:46.957Z,96.4
2022-11-26T13:22:51.328Z,96.4
2022-11-26T13:24:41.319Z,96.4
2022-11-26T13:26:42.757Z,95.9
2022-11-26T13:28:40.996Z,95.9
2022-11-26T13:30:34.122Z,95.9
2022-11-26T13:32:56.293Z,95.9
2022-11-26T13:34:40.762Z,95.9
2022-11-26T13:36:45.893Z,95.9
2022-11-26T13:38:35.735Z,96.4
2022-11-26T13:40:58.572Z,96.4
2022-11-26T13:42:40.038Z,96.4
2022-11-26T13:44:49.143Z,96.4
2022-11-26T13:46:28.471Z,96.4
2022-11-26T13:48:30.776Z,95.9
2022-11-26T13:50:28.935Z,95.9
2022-11-26T13:52:30.746Z,95.9
2022-11-26T13:54:28.189Z,95.9
2022-11-26T13:56:27.387Z,95.9
2022-11-26T13:58:26.778Z,95.9
2022-11-26T14:00:25.157Z,95.9
2022-11-26T14:02:37.327Z,95.9
2022-11-26T14:04:52.580Z,95.9
2022-11-26T14:06:23.279Z,95.9
2022-11-26T14:08:37.424Z,95.9
2022-11-26T14:10:40.062Z,95.9
2022-11-26T14:12:22.741Z,95.9
2022-11-26T14:14:36.588Z,96.4
2022-11-26T14:16:20.760Z,96.4
2022-11-26T14:18:53.793Z,96.3
2022-11-26T14:20:20.057Z,96.3
2022-11-26T14:22:29.211Z,96.3
2022-11-26T14:24:54.446Z,96.3
2022-11-26T14:26:26.408Z,96.3
2022-11-26T14:28:19.033Z,96.5
2022-11-26T14:30:21.981Z,95.8
2022-11-26T14:32:22.482Z,95.8
2022-11-26T14:34:25.755Z,95.8
2022-11-26T14:36:19.820Z,96.4
2022-11-26T14:38:23.972Z,96.5
2022-11-26T14:40:22.606Z,96.5
2022-11-26T14:42:17.903Z,96.5
2022-11-26T14:44:18.687Z,96.9
2022-11-26T14:46:16.937Z,96.9
2022-11-26T14:48:24.169Z,97
2022-11-26T14:50:19.451Z,97
2022-11-26T14:52:20.094Z,97
2022-11-26T14:54:22.123Z,97
2022-11-26T14:56:17.862Z,97
2022-11-26T14:58:18.195Z,96.7
2022-11-26T15:00:22.371Z,96.7
2022-11-26T15:02:21.031Z,96.7
2022-11-26T15:04:23.687Z,96.7
2022-11-26T15:06:24.502Z,96.7
2022-11-26T15:08:16.489Z,96.6
2022-11-26T15:10:19.029Z,96.6
2022-11-26T15:12:15.544Z,96.6
2022-11-26T15:14:19.620Z,96.6
2022-11-26T15:16:27.296Z,96.6
2022-11-26T15:18:14.661Z,97
2022-11-26T15:20:15.695Z,97
2022-11-26T15:22:20.073Z,97
2022-11-26T15:24:15.041Z,97
2022-11-26T15:26:15.895Z,97
2022-11-26T15:28:17.652Z,97
2022-11-26T15:30:20.497Z,97
2022-11-26T15:32:25.528Z,97
2022-11-26T15:34:12.533Z,97
2022-11-26T15:36:15.878Z,97
2022-11-26T15:38:13.676Z,96.8
2022-11-26T15:40:19.077Z,96.8
2022-11-26T15:42:26.463Z,96.4
2022-11-26T15:44:20.239Z,96.4
2022-11-26T15:46:14.252Z,96.4
2022-11-26T15:48:27.644Z,96
2022-11-26T15:50:23.128Z,96
2022-11-26T15:52:10.794Z,95.9
2022-11-26T15:54:19.705Z,95.9
2022-11-26T15:56:07.996Z,95.9
2022-11-26T15:58:10.858Z,96
2022-11-26T16:00:20.975Z,96
2022-11-26T16:02:17.550Z,96
2022-11-26T16:04:27.701Z,95.1
2022-11-26T16:06:07.040Z,95.9
2022-11-26T16:08:22.794Z,96.1
2022-11-26T16:10:11.334Z,96.1
2022-11-26T16:12:20.271Z,96.1
2022-11-26T16:14:20.505Z,96.1
2022-11-26T16:16:08.939Z,96.5
2022-11-26T16:18:14.946Z,96.3
2022-11-26T16:20:05.267Z,95.7
2022-11-26T16:22:05.130Z,96.2
2022-11-26T16:24:06.253Z,96.2
2022-11-26T16:26:09.959Z,96.2
2022-11-26T16:28:06.211Z,96.4
2022-11-26T16:30:13.020Z,96.4
2022-11-26T16:32:02.502Z,96.4
2022-11-26T16:34:06.677Z,96.4
2022-11-26T16:36:08.699Z,96.4
2022-11-26T16:38:01.800Z,96.2
2022-11-26T16:40:03.950Z,96.2
2022-11-26T16:42:00.864Z,96.2
2022-11-26T16:44:00.713Z,96.8
2022-11-26T16:46:00.512Z,96.8
2022-11-26T16:48:01.034Z,96.6
2022-11-26T16:50:00.335Z,96.6
2022-11-26T16:51:59.491Z,96.6
2022-11-26T16:53:59.232Z,97.4
2022-11-26T16:55:59.668Z,97.4
2022-11-26T16:58:00.336Z,97.2
2022-11-26T17:00:01.812Z,97.2
2022-11-26T17:01:58.117Z,97.2
2022-11-26T17:03:57.814Z,97.2
2022-11-26T17:06:00.697Z,97.2
2022-11-26T17:07:59.465Z,97.4
2022-11-26T17:09:57.016Z,97.4
2022-11-26T17:11:56.707Z,97.4
2022-11-26T17:13:56.388Z,97.4
2022-11-26T17:15:56.330Z,97.4
2022-11-26T17:18:02.386Z,97.5
2022-11-26T17:19:55.661Z,97.5
2022-11-26T17:21:55.214Z,97.5
2022-11-26T17:23:55.336Z,97.5
2022-11-26T17:25:54.956Z,97.5
2022-11-26T17:27:54.352Z,97.5
2022-11-26T17:29:54.149Z,97.5
2022-11-26T17:31:53.823Z,97.5
2022-11-26T17:33:53.521Z,96.8
2022-11-26T17:35:53.547Z,96.8
2022-11-26T17:37:52.983Z,96.8
2022-11-26T17:39:52.980Z,96.8
2022-11-26T17:41:52.498Z,97.4
2022-11-26T17:43:52.107Z,97.4
2022-11-26T17:45:51.824Z,97.4
2022-11-26T17:47:51.879Z,97.7
2022-11-26T17:49:52.564Z,97.7
2022-11-26T17:51:50.840Z,97.7
2022-11-26T17:53:50.851Z,97.7
2022-11-26T17:55:50.413Z,97.7
2022-11-26T17:57:50.511Z,97.2
2022-11-26T17:59:49.952Z,97.2
2022-11-26T18:01:49.501Z,96.6
2022-11-26T18:03:50.218Z,96.6
2022-11-26T18:05:48.894Z,96.6
2022-11-26T18:07:48.649Z,96.3
2022-11-26T18:09:48.370Z,96.1
2022-11-26T18:11:50.326Z,96.1
2022-11-26T18:13:47.783Z,96.8
2022-11-26T18:15:47.624Z,96.8
2022-11-26T18:17:48.433Z,97.2
2022-11-26T18:19:47.458Z,97.2
2022-11-26T18:21:49.028Z,97.3
2022-11-26T18:23:46.513Z,97.3
2022-11-26T18:25:46.155Z,97.3
2022-11-26T18:27:45.923Z,97.3
2022-11-26T18:29:45.680Z,96.8
2022-11-26T18:31:45.420Z,96.3
2022-11-26T18:33:45.222Z,96.3
2022-11-26T18:35:44.767Z,96.3
2022-11-26T18:37:44.525Z,96.5
2022-11-26T18:39:44.255Z,96.5
2022-11-26T18:41:43.896Z,96.5
2022-11-26T18:43:44.383Z,96.5
2022-11-26T18:45:43.404Z,96.5
2022-11-26T18:47:43.304Z,96.5
2022-11-26T18:49:46.266Z,96.5
2022-11-26T18:51:42.471Z,96.5
2022-11-26T18:53:43.746Z,96.8
2022-11-26T18:55:41.941Z,96.8
2022-11-26T18:57:41.763Z,96.5
2022-11-26T18:59:41.981Z,96.5
2022-11-26T19:01:41.351Z,96.1
2022-11-26T19:03:44.138Z,96.1
2022-11-26T19:05:41.471Z,96.1
2022-11-26T19:07:40.541Z,96.1
2022-11-26T19:09:40.579Z,96.1
2022-11-26T19:11:40.319Z,96.1
2022-11-26T19:13:39.524Z,96.1
2022-11-26T19:15:40.607Z,96.1
2022-11-26T19:17:38.975Z,95.9
2022-11-26T19:19:39.055Z,95.5
2022-11-26T19:21:38.388Z,95.5
2022-11-26T19:23:38.063Z,95.5
2022-11-26T19:25:37.748Z,95.5
2022-11-26T19:27:37.508Z,95.7
2022-11-26T19:29:37.352Z,95.7
2022-11-26T19:31:37.457Z,95.7
2022-11-26T19:33:37.740Z,95.7
2022-11-26T19:35:38.630Z,96
2022-11-26T19:37:36.171Z,96
2022-11-26T19:39:35.796Z,95.4
2022-11-26T19:41:35.668Z,95.4
2022-11-26T19:43:37.178Z,95.4
2022-11-26T19:45:34.970Z,95.4
2022-11-26T19:47:35.023Z,95.9
2022-11-26T19:49:34.505Z,95.9
2022-11-26T19:51:34.149Z,95.9
2022-11-26T19:53:34.701Z,95.9
2022-11-26T19:55:33.618Z,95.9
2022-11-26T19:57:33.382Z,95.6
2022-11-26T19:59:33.293Z,95.6
2022-11-26T20:01:34.484Z,95.6
2022-11-26T20:03:37.403Z,96.4
2022-11-26T20:05:32.149Z,96.4
2022-11-26T20:07:32.030Z,96.7
2022-11-26T20:09:31.709Z,97
2022-11-26T20:11:35.214Z,97
2022-11-26T20:13:31.546Z,97
2022-11-26T20:15:31.042Z,97
2022-11-26T20:17:30.497Z,96.5
2022-11-26T20:19:30.319Z,96.5
2022-11-26T20:21:31.941Z,95.9
2022-11-26T20:23:30.262Z,95.9
2022-11-26T20:25:32.807Z,95.9
2022-11-26T20:27:29.155Z,95.4
2022-11-26T20:29:28.829Z,95.4
2022-11-26T20:31:29.468Z,95.4
2022-11-26T20:33:28.245Z,95.4
2022-11-26T20:35:27.956Z,95.4
2022-11-26T20:37:27.779Z,96.2
2022-11-26T20:39:27.391Z,96.5
2022-11-26T20:41:28.224Z,96.5
2022-11-26T20:43:26.954Z,96.5
2022-11-26T20:45:26.636Z,96.5
2022-11-26T20:47:26.799Z,96.4
2022-11-26T20:49:30.789Z,96.4
2022-11-26T20:51:25.857Z,96.4
2022-11-26T20:53:25.489Z,96.4
2022-11-26T20:55:26.064Z,96.4
2022-11-26T20:57:25.038Z,96.2
2022-11-26T20:59:25.033Z,97.1
2022-11-26T21:01:26.463Z,97.1
2022-11-26T21:03:25.892Z,97.1
2022-11-26T21:05:23.904Z,97.1
2022-11-26T21:07:23.954Z,97
2022-11-26T21:09:23.543Z,97
2022-11-26T21:11:23.419Z,97
2022-11-26T21:13:22.851Z,97
2022-11-26T21:15:22.522Z,97
2022-11-26T21:17:22.454Z,97.1
2022-11-26T21:19:22.043Z,97.1
2022-11-26T21:21:23.491Z,97.1
2022-11-26T21:23:21.499Z,97.1
2022-11-26T21:25:21.236Z,97.1
2022-11-26T21:27:20.873Z,97.3
2022-11-26T21:29:20.912Z,97.3
2022-11-26T21:31:21.436Z,97.3
2022-11-26T21:33:20.046Z,97.3
2022-11-26T21:35:19.876Z,97.3
2022-11-26T21:37:20.005Z,97.4
2022-11-26T21:39:19.374Z,97.4
2022-11-26T21:41:19.810Z,97.4
2022-11-26T21:43:19.422Z,97.4
2022-11-26T21:45:18.852Z,97.7
2022-11-26T21:47:18.134Z,97.6
2022-11-26T21:49:17.973Z,97.6
2022-11-26T21:51:18.818Z,97.6
2022-11-26T21:53:17.285Z,97.6
2022-11-26T21:55:17.166Z,97.6
2022-11-26T21:57:16.766Z,97.6
2022-11-26T21:59:16.394Z,97.6
2022-11-26T22:01:19.041Z,97.6
2022-11-26T22:03:15.781Z,97.6
2022-11-26T22:05:15.550Z,97.6
2022-11-26T22:07:15.302Z,97.2
2022-11-26T22:09:16.467Z,97.2
2022-11-26T22:11:16.585Z,97.2
2022-11-26T22:13:14.379Z,96.9
2022-11-26T22:15:14.053Z,96.9
2022-11-26T22:17:13.864Z,96.8
2022-11-26T22:19:13.669Z,96.8
2022-11-26T22:21:14.952Z,96.8
2022-11-26T22:23:12.968Z,96.8
2022-11-26T22:25:12.715Z,96.2
2022-11-26T22:27:12.496Z,96.2
2022-11-26T22:29:13.779Z,96.1
2022-11-26T22:31:16.383Z,96.1
2022-11-26T22:33:11.600Z,96.1
2022-11-26T22:35:11.295Z,96.7
2022-11-26T22:37:11.021Z,97.3
2022-11-26T22:39:12.433Z,98
2022-11-26T22:41:13.443Z,98
2022-11-26T22:43:10.541Z,98
2022-11-26T22:45:10.595Z,98
2022-11-26T22:47:09.686Z,98
2022-11-26T22:49:12.994Z,97.5
2022-11-26T22:51:09.579Z,98
2022-11-26T22:53:09.485Z,98
2022-11-26T22:55:09.515Z,98
2022-11-26T22:57:08.235Z,98
2022-11-26T22:59:11.071Z,98.2
2022-11-26T23:01:13.804Z,98.2
2022-11-26T23:03:07.577Z,98.2
2022-11-26T23:05:07.905Z,98.2
2022-11-26T23:07:06.996Z,98.2
2022-11-26T23:09:08.746Z,98
2022-11-26T23:11:07.266Z,98.7
2022-11-26T23:13:07.146Z,98.7
2022-11-26T23:15:06.771Z,98.7
2022-11-26T23:17:05.812Z,98.7
2022-11-26T23:19:05.807Z,98.9
2022-11-26T23:21:06.814Z,98.9
2022-11-26T23:23:05.186Z,98.9
2022-11-26T23:25:05.371Z,98.9
2022-11-26T23:27:04.053Z,98.2
2022-11-26T23:29:05.202Z,98.2
2022-11-26T23:31:06.225Z,98.2
2022-11-26T23:33:03.351Z,98.8
2022-11-26T23:35:03.223Z,98.8
2022-11-26T23:37:02.734Z,98.8
2022-11-26T23:39:05.270Z,99.2
2022-11-26T23:41:04.444Z,99.5
2022-11-26T23:43:05.975Z,99.5
2022-11-26T23:45:02.203Z,99.5
2022-11-26T23:47:01.335Z,99.5
2022-11-26T23:49:01.077Z,99.2
2022-11-26T23:51:05.458Z,99.2
2022-11-26T23:53:00.620Z,99.2
2022-11-26T23:55:00.332Z,99.2
2022-11-26T23:56:59.879Z,99
2022-11-26T23:59:01.887Z,99
